createdAt,value
2019-04-26T00:00:28.194Z,100159.15
2019-04-26T00:02:57.986Z,100148.20
2019-04-26T00:05:34.467Z,100150.27
2019-04-26T00:07:53.899Z,100145.64
2019-04-26T00:10:42.787Z,100139.79
2019-04-26T00:13:19.158Z,100145.22
2019-04-26T00:16:01.216Z,100148.28
2019-04-26T00:18:28.302Z,100141.70
2019-04-26T00:20:55.250Z,100137.56
2019-04-26T00:23:24.115Z,100142.37
2019-04-26T00:25:51.902Z,100135.59
2019-04-26T00:28:19.817Z,100129.86
2019-04-26T00:30:46.480Z,100131.31
2019-04-26T00:33:13.527Z,100121.94
2019-04-26T00:35:47.509Z,100124.29
2019-04-26T00:38:09.293Z,100127.32
2019-04-26T00:40:36.493Z,100127.66
2019-04-26T00:43:03.277Z,100127.00
2019-04-26T00:45:32.516Z,100126.47
2019-04-26T00:47:59.924Z,100143.14
2019-04-26T00:50:27.092Z,100166.27
2019-04-26T00:52:54.566Z,100196.44
2019-04-26T00:55:21.902Z,100200.68
2019-04-26T00:57:49.387Z,100207.84
2019-04-26T01:00:18.208Z,100204.39
2019-04-26T01:02:49.463Z,100192.77
2019-04-26T01:05:17.065Z,100170.46
2019-04-26T01:07:45.719Z,100192.28
2019-04-26T01:10:12.398Z,100212.92
2019-04-26T01:12:39.180Z,100218.55
2019-04-26T01:15:06.285Z,100219.34
2019-04-26T01:17:35.445Z,100183.52
2019-04-26T01:20:02.566Z,100169.94
2019-04-26T01:22:33.434Z,100170.89
2019-04-26T01:25:02.159Z,100168.66
2019-04-26T01:27:30.477Z,100169.66
2019-04-26T01:30:01.687Z,100174.15
2019-04-26T01:32:30.085Z,100181.45
2019-04-26T01:34:56.873Z,100180.86
2019-04-26T01:37:24.726Z,100187.42
2019-04-26T01:39:56.261Z,100180.00
2019-04-26T01:42:43.577Z,100172.91
2019-04-26T01:45:20.411Z,100161.09
2019-04-26T01:47:50.467Z,100158.97
2019-04-26T01:50:19.204Z,100163.20
2019-04-26T01:52:46.094Z,100168.59
2019-04-26T01:55:13.376Z,100167.23
2019-04-26T01:57:40.636Z,100161.75
2019-04-26T02:00:33.954Z,100150.66
2019-04-26T02:03:07.909Z,100124.91
2019-04-26T02:05:34.724Z,100116.97
2019-04-26T02:08:01.619Z,100107.52
2019-04-26T02:10:28.772Z,100108.59
2019-04-26T02:12:56.503Z,100128.81
2019-04-26T02:15:27.198Z,100143.61
2019-04-26T02:17:55.147Z,100150.23
2019-04-26T02:21:05.805Z,100133.56
2019-04-26T02:23:37.712Z,100111.44
2019-04-26T02:26:22.704Z,100102.99
2019-04-26T02:28:50.857Z,100105.31
2019-04-26T02:31:18.431Z,100111.34
2019-04-26T02:33:45.217Z,100106.67
2019-04-26T02:36:12.517Z,100097.51
2019-04-26T02:38:40.379Z,100096.75
2019-04-26T02:41:07.449Z,100110.97
2019-04-26T02:43:35.841Z,100116.50
2019-04-26T02:46:28.448Z,100097.49
2019-04-26T02:49:18.728Z,100085.05
2019-04-26T02:52:13.054Z,100102.45
2019-04-26T02:54:45.717Z,100110.69
2019-04-26T02:57:34.373Z,100115.55
2019-04-26T03:00:08.334Z,100114.86
2019-04-26T03:02:37.235Z,100114.62
2019-04-26T03:05:07.671Z,100099.73
2019-04-26T03:07:53.215Z,100102.44
2019-04-26T03:10:31.869Z,100104.78
2019-04-26T03:13:01.527Z,100103.18
2019-04-26T03:15:54.242Z,100100.27
2019-04-26T03:18:42.606Z,100098.91
2019-04-26T03:21:18.705Z,100101.84
2019-04-26T03:23:59.228Z,100109.24
2019-04-26T03:26:35.644Z,100106.02
2019-04-26T03:29:36.926Z,100112.80
2019-04-26T03:32:40.819Z,100114.70
2019-04-26T03:35:49.257Z,100109.29
2019-04-26T03:38:39.634Z,100099.38
2019-04-26T03:41:16.746Z,100088.14
2019-04-26T03:44:10.315Z,100078.64
2019-04-26T03:47:06.741Z,100082.91
2019-04-26T03:49:55.503Z,100071.05
2019-04-26T03:52:42.088Z,100070.19
2019-04-26T03:56:03.346Z,100076.08
2019-04-26T03:58:58.455Z,100075.16
2019-04-26T04:01:27.316Z,100074.65
2019-04-26T04:04:20.401Z,100080.73
2019-04-26T04:07:00.773Z,100082.29
2019-04-26T04:09:18.135Z,100073.81
2019-04-26T04:12:11.809Z,100069.63
2019-04-26T04:15:03.504Z,100062.67
2019-04-26T04:17:49.978Z,100077.11
2019-04-26T04:21:26.360Z,100081.25
2019-04-26T04:24:06.728Z,100082.52
2019-04-26T04:26:58.888Z,100087.38
2019-04-26T04:29:43.068Z,100079.47
2019-04-26T04:32:13.094Z,100067.83
2019-04-26T04:34:44.000Z,100069.80
2019-04-26T04:37:14.143Z,100073.40
2019-04-26T04:39:58.748Z,100076.06
2019-04-26T04:43:01.924Z,100081.70
2019-04-26T04:46:15.296Z,100082.82
2019-04-26T04:49:20.485Z,100081.77
2019-04-26T04:51:59.306Z,100070.39
2019-04-26T04:54:39.101Z,100067.25
2019-04-26T04:57:31.585Z,100072.70
2019-04-26T05:01:00.156Z,100074.08
2019-04-26T05:03:46.931Z,100082.72
2019-04-26T05:06:34.825Z,100091.44
2019-04-26T05:09:11.006Z,100099.25
2019-04-26T05:11:45.821Z,100117.83
2019-04-26T05:14:34.853Z,100114.30
2019-04-26T05:17:30.178Z,100114.23
2019-04-26T05:20:29.785Z,100116.27
2019-04-26T05:23:53.216Z,100116.05
2019-04-26T05:27:32.884Z,100112.55
2019-04-26T05:31:16.180Z,100109.97
2019-04-26T05:34:23.123Z,100114.42
2019-04-26T05:37:22.225Z,100118.93
2019-04-26T05:39:55.621Z,100117.23
2019-04-26T05:43:14.351Z,100100.40
2019-04-26T05:46:25.151Z,100092.41
2019-04-26T05:49:41.791Z,100090.89
2019-04-26T05:52:48.630Z,100096.27
2019-04-26T05:55:34.444Z,100105.98
2019-04-26T05:58:35.553Z,100099.40
2019-04-26T06:02:03.375Z,100109.13
2019-04-26T06:04:53.490Z,100108.66
2019-04-26T06:07:39.726Z,100101.09
2019-04-26T06:10:29.462Z,100117.23
2019-04-26T06:13:12.033Z,100123.68
2019-04-26T06:15:58.056Z,100129.30
2019-04-26T06:18:48.836Z,100147.27
2019-04-26T06:21:52.185Z,100160.95
2019-04-26T06:24:31.673Z,100152.61
2019-04-26T06:27:24.250Z,100145.08
2019-04-26T06:30:12.232Z,100134.08
2019-04-26T06:33:11.798Z,100116.34
2019-04-26T06:35:43.083Z,100118.16
2019-04-26T06:39:05.081Z,100121.46
2019-04-26T06:42:22.355Z,100115.59
2019-04-26T06:45:51.658Z,100114.97
2019-04-26T06:48:33.443Z,100124.97
2019-04-26T06:51:07.751Z,100131.03
2019-04-26T06:53:42.997Z,100125.37
2019-04-26T06:56:34.011Z,100119.05
2019-04-26T06:59:39.893Z,100122.61
2019-04-26T07:02:16.613Z,100122.12
2019-04-26T07:05:05.279Z,100138.97
2019-04-26T07:07:43.032Z,100148.89
2019-04-26T07:10:50.106Z,100144.88
2019-04-26T07:13:42.438Z,100154.89
2019-04-26T07:16:24.487Z,100177.36
2019-04-26T07:19:15.455Z,100174.72
2019-04-26T07:22:40.000Z,100173.29
2019-04-26T07:25:45.283Z,100184.99
2019-04-26T07:28:46.036Z,100187.97
2019-04-26T07:31:43.047Z,100183.12
2019-04-26T07:34:43.181Z,100189.78
2019-04-26T07:38:05.547Z,100187.69
2019-04-26T07:41:32.179Z,100188.03
2019-04-26T07:44:56.024Z,100194.00
2019-04-26T07:48:21.887Z,100193.83
2019-04-26T07:51:29.559Z,100202.80
2019-04-26T07:54:36.002Z,100209.02
2019-04-26T07:57:55.932Z,100209.42
2019-04-26T08:00:44.754Z,100210.25
2019-04-26T08:03:36.175Z,100206.69
2019-04-26T08:06:18.859Z,100207.33
2019-04-26T08:08:54.662Z,100210.07
2019-04-26T08:11:29.685Z,100214.52
2019-04-26T08:14:22.875Z,100221.25
2019-04-26T08:17:17.358Z,100217.49
2019-04-26T08:19:57.759Z,100212.30
2019-04-26T08:22:28.749Z,100215.88
2019-04-26T08:24:59.674Z,100218.55
2019-04-26T08:27:28.406Z,100225.83
2019-04-26T08:30:10.496Z,100236.91
2019-04-26T08:32:40.393Z,100224.94
2019-04-26T08:35:21.749Z,100222.63
2019-04-26T08:37:52.206Z,100224.14
2019-04-26T08:40:26.063Z,100220.88
2019-04-26T08:43:14.160Z,100213.03
2019-04-26T08:46:02.922Z,100217.20
2019-04-26T08:48:34.331Z,100221.58
2019-04-26T08:51:06.196Z,100219.86
2019-04-26T08:53:34.000Z,100215.38
2019-04-26T08:56:02.677Z,100225.78
2019-04-26T08:58:31.276Z,100231.08
2019-04-26T09:01:17.552Z,100218.73
2019-04-26T09:03:54.474Z,100228.33
2019-04-26T09:06:27.946Z,100199.13
2019-04-26T09:08:55.619Z,100230.91
2019-04-26T09:11:30.164Z,100245.35
2019-04-26T09:13:54.081Z,100247.67
2019-04-26T09:16:21.091Z,100254.55
2019-04-26T09:18:53.132Z,100259.79
2019-04-26T09:21:19.911Z,100262.70
2019-04-26T09:24:05.074Z,100265.84
2019-04-26T09:26:46.793Z,100263.97
2019-04-26T09:29:41.835Z,100265.11
2019-04-26T09:32:12.213Z,100257.31
2019-04-26T09:34:41.224Z,100260.80
2019-04-26T09:37:08.909Z,100289.27
2019-04-26T09:39:41.598Z,100287.66
2019-04-26T09:42:13.649Z,100299.41
2019-04-26T09:44:52.699Z,100301.08
2019-04-26T09:47:26.725Z,100308.77
2019-04-26T09:50:22.429Z,100293.58
2019-04-26T09:52:51.289Z,100287.56
2019-04-26T09:55:20.193Z,100287.25
2019-04-26T09:57:47.205Z,100281.06
2019-04-26T10:00:17.778Z,100293.91
2019-04-26T10:02:44.562Z,100317.39
2019-04-26T10:05:11.989Z,100325.13
2019-04-26T10:07:40.150Z,100322.06
2019-04-26T10:10:08.935Z,100330.23
2019-04-26T10:12:47.194Z,100336.06
2019-04-26T10:15:26.795Z,100340.74
2019-04-26T10:17:53.175Z,100341.70
2019-04-26T10:20:30.852Z,100349.47
2019-04-26T10:22:59.755Z,100359.44
2019-04-26T10:25:28.554Z,100355.59
2019-04-26T10:27:55.707Z,100351.08
2019-04-26T10:30:22.391Z,100359.52
2019-04-26T10:32:49.051Z,100357.36
2019-04-26T10:35:17.454Z,100354.69
2019-04-26T10:37:48.068Z,100365.04
2019-04-26T10:40:14.648Z,100357.68
2019-04-26T10:42:42.178Z,100365.95
2019-04-26T10:45:14.379Z,100377.56
2019-04-26T10:47:39.926Z,100378.17
2019-04-26T10:50:08.613Z,100383.00
2019-04-26T10:53:10.758Z,100380.70
2019-04-26T10:56:02.877Z,100380.00
2019-04-26T10:58:52.243Z,100377.92
2019-04-26T11:01:19.238Z,100391.14
2019-04-26T11:03:46.034Z,100372.64
2019-04-26T11:06:12.822Z,100384.86
2019-04-26T11:08:40.427Z,100369.81
2019-04-26T11:11:08.181Z,100388.48
2019-04-26T11:13:35.642Z,100392.39
2019-04-26T11:16:06.978Z,100403.48
2019-04-26T11:18:33.352Z,100406.41
2019-04-26T11:21:00.038Z,100413.45
2019-04-26T11:23:27.722Z,100417.67
2019-04-26T11:25:57.954Z,100399.81
2019-04-26T11:28:26.486Z,100407.81
2019-04-26T11:30:56.954Z,100411.86
2019-04-26T11:33:22.558Z,100415.41
2019-04-26T11:35:49.267Z,100417.16
2019-04-26T11:38:16.083Z,100412.70
2019-04-26T11:40:44.453Z,100417.98
2019-04-26T11:43:11.593Z,100412.19
2019-04-26T11:45:38.309Z,100402.85
2019-04-26T11:48:06.443Z,100399.92
2019-04-26T11:50:33.275Z,100395.67
2019-04-26T11:53:01.967Z,100398.08
2019-04-26T11:55:29.844Z,100403.05
2019-04-26T11:57:58.144Z,100398.75
2019-04-26T12:00:30.641Z,100398.50
2019-04-26T12:02:57.413Z,100405.84
2019-04-26T12:05:43.688Z,100396.81
2019-04-26T12:08:15.454Z,100407.44
2019-04-26T12:10:44.377Z,100390.80
2019-04-26T12:13:10.996Z,100404.92
2019-04-26T12:15:43.569Z,100398.94
2019-04-26T12:18:09.908Z,100398.74
2019-04-26T12:20:36.291Z,100394.83
2019-04-26T12:23:03.138Z,100380.48
2019-04-26T12:25:31.180Z,100382.59
2019-04-26T12:28:01.904Z,100381.91
2019-04-26T12:30:26.978Z,100367.63
2019-04-26T12:32:53.986Z,100386.58
2019-04-26T12:35:20.696Z,100396.27
2019-04-26T12:37:50.720Z,100415.23
2019-04-26T12:40:19.283Z,100415.74
2019-04-26T12:42:47.363Z,100411.03
2019-04-26T12:45:36.818Z,100413.13
2019-04-26T12:48:08.010Z,100407.11
2019-04-26T12:50:37.633Z,100411.41
2019-04-26T12:53:03.853Z,100401.56
2019-04-26T12:55:31.045Z,100401.17
2019-04-26T12:57:57.759Z,100409.73
2019-04-26T13:00:28.130Z,100423.46
2019-04-26T13:02:55.833Z,100428.97
2019-04-26T13:05:22.763Z,100433.34
2019-04-26T13:07:53.373Z,100431.02
2019-04-26T13:10:51.652Z,100431.50
2019-04-26T13:13:23.381Z,100429.74
2019-04-26T13:15:59.040Z,100436.11
2019-04-26T13:18:25.869Z,100439.80
2019-04-26T13:20:52.671Z,100441.77
2019-04-26T13:23:19.511Z,100448.62
2019-04-26T13:25:46.212Z,100446.84
2019-04-26T13:28:15.659Z,100439.54
2019-04-26T13:30:43.688Z,100438.23
2019-04-26T13:33:10.393Z,100452.72
2019-04-26T13:35:37.124Z,100438.86
2019-04-26T13:38:05.032Z,100435.78
2019-04-26T13:40:32.576Z,100427.98
2019-04-26T13:42:59.297Z,100435.97
2019-04-26T13:45:43.644Z,100428.97
2019-04-26T13:48:26.383Z,100427.28
2019-04-26T13:51:01.386Z,100430.52
2019-04-26T13:53:26.960Z,100441.77
2019-04-26T13:55:53.820Z,100458.16
2019-04-26T13:58:25.350Z,100455.64
2019-04-26T14:00:49.194Z,100460.66
2019-04-26T14:03:16.406Z,100450.83
2019-04-26T14:05:43.208Z,100463.44
2019-04-26T14:08:09.930Z,100476.28
2019-04-26T14:10:36.754Z,100475.02
2019-04-26T14:13:03.641Z,100483.30
2019-04-26T14:15:30.554Z,100468.73
2019-04-26T14:18:00.305Z,100480.00
2019-04-26T14:20:26.772Z,100475.15
2019-04-26T14:23:02.206Z,100477.00
2019-04-26T14:25:36.356Z,100476.48
2019-04-26T14:28:03.219Z,100488.34
2019-04-26T14:30:30.042Z,100498.20
2019-04-26T14:32:58.753Z,100498.05
2019-04-26T14:35:26.734Z,100484.48
2019-04-26T14:37:53.461Z,100492.16
2019-04-26T14:40:20.378Z,100484.91
2019-04-26T14:42:48.850Z,100503.25
2019-04-26T14:45:23.428Z,100492.73
2019-04-26T14:47:47.574Z,100489.80
2019-04-26T14:50:14.507Z,100484.72
2019-04-26T14:52:43.577Z,100469.78
2019-04-26T14:55:10.389Z,100485.59
2019-04-26T14:57:37.100Z,100483.70
2019-04-26T15:00:06.357Z,100501.30
2019-04-26T15:02:47.257Z,100501.78
2019-04-26T15:05:25.382Z,100498.21
2019-04-26T15:07:53.832Z,100490.66
2019-04-26T15:10:23.198Z,100486.25
2019-04-26T15:12:58.312Z,100486.42
2019-04-26T15:15:18.892Z,100496.80
2019-04-26T15:17:45.870Z,100491.83
2019-04-26T15:20:12.798Z,100482.48
2019-04-26T15:22:46.301Z,100488.78
2019-04-26T15:25:11.993Z,100498.91
2019-04-26T15:27:39.473Z,100509.34
2019-04-26T15:30:07.747Z,100515.11
2019-04-26T15:32:35.340Z,100526.24
2019-04-26T15:35:02.309Z,100517.77
2019-04-26T15:37:29.188Z,100522.73
2019-04-26T15:40:06.221Z,100529.55
2019-04-26T15:43:00.899Z,100544.02
2019-04-26T15:45:56.097Z,100551.81
2019-04-26T15:48:29.975Z,100556.66
2019-04-26T15:50:58.264Z,100561.73
2019-04-26T15:53:26.000Z,100566.14
2019-04-26T15:55:52.795Z,100568.87
2019-04-26T15:58:19.813Z,100577.56
2019-04-26T16:00:46.554Z,100584.78
2019-04-26T16:03:13.349Z,100576.20
2019-04-26T16:05:41.289Z,100570.31
2019-04-26T16:08:08.002Z,100570.56
2019-04-26T16:10:38.374Z,100575.30
2019-04-26T16:13:18.111Z,100572.73
2019-04-26T16:15:32.925Z,100563.75
2019-04-26T16:17:59.848Z,100558.24
2019-04-26T16:20:26.685Z,100556.08
2019-04-26T16:22:53.480Z,100558.54
2019-04-26T16:25:20.881Z,100561.31
2019-04-26T16:27:49.955Z,100555.02
2019-04-26T16:30:37.553Z,100573.44
2019-04-26T16:33:10.331Z,100583.37
2019-04-26T16:35:37.245Z,100585.89
2019-04-26T16:38:22.905Z,100582.27
2019-04-26T16:40:51.977Z,100590.83
2019-04-26T16:43:34.791Z,100598.34
2019-04-26T16:45:47.327Z,100599.65
2019-04-26T16:48:17.330Z,100604.53
2019-04-26T16:50:46.170Z,100598.27
2019-04-26T16:53:36.239Z,100600.78
2019-04-26T16:55:48.823Z,100606.63
2019-04-26T16:58:09.071Z,100608.68
2019-04-26T17:00:50.803Z,100603.16
2019-04-26T17:03:08.069Z,100605.61
2019-04-26T17:05:47.887Z,100602.20
2019-04-26T17:08:05.072Z,100603.42
2019-04-26T17:10:32.935Z,100607.91
2019-04-26T17:12:59.923Z,100606.14
2019-04-26T17:15:26.767Z,100615.59
2019-04-26T17:17:53.496Z,100616.22
2019-04-26T17:20:21.427Z,100617.95
2019-04-26T17:23:01.275Z,100621.60
2019-04-26T17:25:55.130Z,100622.52
2019-04-26T17:28:23.007Z,100620.94
2019-04-26T17:30:50.111Z,100621.58
2019-04-26T17:33:16.936Z,100616.77
2019-04-26T17:35:43.666Z,100604.41
2019-04-26T17:38:11.521Z,100608.82
2019-04-26T17:40:41.040Z,100606.77
2019-04-26T17:43:09.713Z,100597.82
2019-04-26T17:45:40.880Z,100595.53
2019-04-26T17:48:06.534Z,100606.54
2019-04-26T17:50:35.378Z,100618.10
2019-04-26T17:53:06.509Z,100628.59
2019-04-26T17:55:33.556Z,100627.78
2019-04-26T17:58:11.821Z,100628.80
2019-04-26T18:00:45.448Z,100640.92
2019-04-26T18:03:03.427Z,100633.08
2019-04-26T18:05:45.085Z,100631.72
2019-04-26T18:08:02.823Z,100635.72
2019-04-26T18:10:28.169Z,100628.67
2019-04-26T18:12:55.041Z,100623.07
2019-04-26T18:15:21.859Z,100613.53
2019-04-26T18:18:09.746Z,100609.28
2019-04-26T18:20:59.822Z,100599.23
2019-04-26T18:23:27.027Z,100613.06
2019-04-26T18:25:53.829Z,100623.76
2019-04-26T18:28:20.714Z,100623.52
2019-04-26T18:30:50.494Z,100635.08
2019-04-26T18:33:17.507Z,100627.29
2019-04-26T18:35:49.153Z,100625.91
2019-04-26T18:38:16.864Z,100629.45
2019-04-26T18:40:59.987Z,100631.41
2019-04-26T18:43:18.870Z,100630.08
2019-04-26T18:45:44.455Z,100632.20
2019-04-26T18:48:11.220Z,100633.83
2019-04-26T18:50:37.966Z,100637.89
2019-04-26T18:53:30.571Z,100628.88
2019-04-26T18:55:59.241Z,100620.47
2019-04-26T18:58:24.829Z,100619.61
2019-04-26T19:00:53.078Z,100621.38
2019-04-26T19:03:26.169Z,100618.94
2019-04-26T19:05:49.885Z,100621.20
2019-04-26T19:08:22.337Z,100621.20
2019-04-26T19:10:57.976Z,100628.48
2019-04-26T19:13:37.779Z,100628.48
2019-04-26T19:16:18.218Z,100629.05
2019-04-26T19:18:49.384Z,100640.22
2019-04-26T19:21:32.238Z,100634.08
2019-04-26T19:24:05.822Z,100642.41
2019-04-26T19:26:33.007Z,100634.66
2019-04-26T19:28:56.857Z,100639.05
2019-04-26T19:31:27.019Z,100639.58
2019-04-26T19:33:55.887Z,100627.91
2019-04-26T19:36:22.670Z,100627.91
2019-04-26T19:38:51.369Z,100644.06
2019-04-26T19:41:21.501Z,100647.84
2019-04-26T19:43:47.882Z,100653.30
2019-04-26T19:46:44.325Z,100663.34
2019-04-26T19:49:50.063Z,100668.51
2019-04-26T19:52:22.586Z,100664.63
2019-04-26T19:54:54.234Z,100664.73
2019-04-26T19:57:33.385Z,100667.14
2019-04-26T19:59:58.336Z,100667.25
2019-04-26T20:02:26.297Z,100661.54
2019-04-26T20:04:53.813Z,100658.56
2019-04-26T20:07:20.604Z,100655.08
2019-04-26T20:09:47.535Z,100660.47
2019-04-26T20:12:15.510Z,100661.65
2019-04-26T20:14:49.114Z,100654.32
2019-04-26T20:17:14.874Z,100652.67
2019-04-26T20:19:40.392Z,100651.02
2019-04-26T20:22:07.212Z,100655.58
2019-04-26T20:24:33.925Z,100651.20
2019-04-26T20:27:01.452Z,100643.30
2019-04-26T20:29:29.568Z,100645.06
2019-04-26T20:32:12.419Z,100649.58
2019-04-26T20:34:41.387Z,100660.13
2019-04-26T20:37:08.134Z,100651.34
2019-04-26T20:39:35.010Z,100651.34
2019-04-26T20:42:03.976Z,100663.52
2019-04-26T20:44:47.580Z,100656.94
2019-04-26T20:46:59.224Z,100659.84
2019-04-26T20:49:27.053Z,100660.28
2019-04-26T20:51:53.918Z,100677.44
2019-04-26T20:54:22.340Z,100679.00
2019-04-26T20:56:52.530Z,100681.34
2019-04-26T20:59:20.205Z,100696.02
2019-04-26T21:01:46.906Z,100695.05
2019-04-26T21:04:33.825Z,100696.80
2019-04-26T21:06:42.452Z,100698.69
2019-04-26T21:09:11.891Z,100687.78
2019-04-26T21:11:39.023Z,100698.95
2019-04-26T21:14:07.699Z,100695.73
2019-04-26T21:16:35.185Z,100695.73
2019-04-26T21:19:02.189Z,100688.53
2019-04-26T21:21:29.992Z,100689.89
2019-04-26T21:23:56.837Z,100687.17
2019-04-26T21:26:38.442Z,100690.98
2019-04-26T21:29:26.560Z,100702.22
2019-04-26T21:32:07.725Z,100716.52
2019-04-26T21:34:36.369Z,100740.28
2019-04-26T21:37:35.945Z,100740.28
2019-04-26T21:40:11.983Z,100740.86
2019-04-26T21:42:39.114Z,100732.00
2019-04-26T21:45:06.356Z,100727.45
2019-04-26T21:47:35.485Z,100719.63
2019-04-26T21:50:04.267Z,100702.80
2019-04-26T21:52:31.219Z,100695.17
2019-04-26T21:54:57.946Z,100695.17
2019-04-26T21:57:27.954Z,100698.16
2019-04-26T21:59:54.111Z,100685.61
2019-04-26T22:02:21.246Z,100680.98
2019-04-26T22:04:48.270Z,100675.70
2019-04-26T22:07:15.196Z,100670.52
2019-04-26T22:09:50.196Z,100661.52
2019-04-26T22:12:16.920Z,100663.70
2019-04-26T22:14:50.570Z,100651.17
2019-04-26T22:17:22.606Z,100652.00
2019-04-26T22:20:14.451Z,100647.72
2019-04-26T22:23:18.416Z,100641.58
2019-04-26T22:25:49.759Z,100632.90
2019-04-26T22:28:17.451Z,100645.93
2019-04-26T22:30:44.319Z,100666.89
2019-04-26T22:33:11.206Z,100674.06
2019-04-26T22:35:38.027Z,100678.71
2019-04-26T22:38:04.860Z,100697.05
2019-04-26T22:40:33.434Z,100709.84
2019-04-26T22:43:10.819Z,100696.07
2019-04-26T22:45:46.988Z,100684.23
2019-04-26T22:48:23.304Z,100696.88
2019-04-26T22:50:52.107Z,100724.31
2019-04-26T22:53:21.530Z,100734.39
2019-04-26T22:55:46.589Z,100725.94
2019-04-26T22:58:13.564Z,100704.55
2019-04-26T23:00:40.470Z,100673.16
2019-04-26T23:03:07.422Z,100661.67
2019-04-26T23:05:37.266Z,100671.72
2019-04-26T23:08:03.454Z,100673.63
2019-04-26T23:10:37.423Z,100671.98
2019-04-26T23:13:09.960Z,100665.52
2019-04-26T23:15:47.269Z,100662.05
2019-04-26T23:18:28.558Z,100676.74
2019-04-26T23:20:57.684Z,100678.66
2019-04-26T23:23:24.389Z,100684.75
2019-04-26T23:25:51.139Z,100684.75
2019-04-26T23:28:18.188Z,100686.61
2019-04-26T23:30:46.218Z,100675.19
2019-04-26T23:33:13.459Z,100661.59
2019-04-26T23:35:45.659Z,100650.45
2019-04-26T23:38:10.504Z,100651.70
2019-04-26T23:43:22.521Z,100639.33
2019-04-26T23:45:49.349Z,100637.02
2019-04-26T23:48:16.267Z,100637.02
2019-04-26T23:50:43.091Z,100633.28
2019-04-26T23:53:09.823Z,100633.28
2019-04-26T23:55:38.081Z,100633.95
2019-04-26T23:58:10.747Z,100636.00
